sensor_id;sensor_type;location;lat;lon;timestamp;P1;durP1;ratioP1;P2;durP2;ratioP2
31966;SDS011;18496;52.042;6.812;2023-07-31T00:01:38;3.03;;;1.63;;
31966;SDS011;18496;52.042;6.812;2023-07-31T00:03:42;4.03;;;1.63;;
31966;SDS011;18496;52.042;6.812;2023-07-31T00:05:45;4.78;;;2.08;;
31966;SDS011;18496;52.042;6.812;2023-07-31T00:07:49;3.33;;;1.83;;
31966;SDS011;18496;52.042;6.812;2023-07-31T00:09:52;4.18;;;2.10;;
31966;SDS011;18496;52.042;6.812;2023-07-31T00:11:56;4.72;;;1.70;;
31966;SDS011;18496;52.042;6.812;2023-07-31T00:14:00;4.63;;;1.90;;
31966;SDS011;18496;52.042;6.812;2023-07-31T00:16:03;3.60;;;2.33;;
31966;SDS011;18496;52.042;6.812;2023-07-31T00:18:07;4.25;;;2.20;;
31966;SDS011;18496;52.042;6.812;2023-07-31T00:20:11;3.22;;;1.83;;
31966;SDS011;18496;52.042;6.812;2023-07-31T00:22:14;3.53;;;2.13;;
31966;SDS011;18496;52.042;6.812;2023-07-31T00:24:18;3.75;;;2.00;;
31966;SDS011;18496;52.042;6.812;2023-07-31T00:26:22;3.13;;;1.55;;
31966;SDS011;18496;52.042;6.812;2023-07-31T00:28:25;3.40;;;1.70;;
31966;SDS011;18496;52.042;6.812;2023-07-31T00:30:31;4.20;;;1.80;;
31966;SDS011;18496;52.042;6.812;2023-07-31T00:32:35;3.00;;;1.67;;
31966;SDS011;18496;52.042;6.812;2023-07-31T00:34:38;6.30;;;2.05;;
31966;SDS011;18496;52.042;6.812;2023-07-31T00:36:42;2.20;;;1.63;;
31966;SDS011;18496;52.042;6.812;2023-07-31T00:38:45;1.92;;;1.50;;
31966;SDS011;18496;52.042;6.812;2023-07-31T00:40:49;2.75;;;1.70;;
31966;SDS011;18496;52.042;6.812;2023-07-31T00:42:53;2.70;;;1.35;;
31966;SDS011;18496;52.042;6.812;2023-07-31T00:44:56;5.55;;;1.52;;
31966;SDS011;18496;52.042;6.812;2023-07-31T00:47:00;2.72;;;1.60;;
31966;SDS011;18496;52.042;6.812;2023-07-31T00:49:04;2.55;;;1.30;;
31966;SDS011;18496;52.042;6.812;2023-07-31T00:51:09;1.50;;;0.88;;
31966;SDS011;18496;52.042;6.812;2023-07-31T00:53:14;1.98;;;1.10;;
31966;SDS011;18496;52.042;6.812;2023-07-31T00:55:17;1.83;;;1.40;;
31966;SDS011;18496;52.042;6.812;2023-07-31T00:57:21;1.75;;;1.10;;
31966;SDS011;18496;52.042;6.812;2023-07-31T00:59:25;2.60;;;1.40;;
31966;SDS011;18496;52.042;6.812;2023-07-31T01:01:29;2.13;;;1.17;;
31966;SDS011;18496;52.042;6.812;2023-07-31T01:03:33;4.40;;;1.20;;
31966;SDS011;18496;52.042;6.812;2023-07-31T01:05:49;4.72;;;1.70;;
31966;SDS011;18496;52.042;6.812;2023-07-31T01:08:22;1.55;;;1.20;;
31966;SDS011;18496;52.042;6.812;2023-07-31T01:10:41;7.38;;;1.20;;
31966;SDS011;18496;52.042;6.812;2023-07-31T01:12:54;2.75;;;1.48;;
31966;SDS011;18496;52.042;6.812;2023-07-31T01:17:08;2.53;;;1.13;;
31966;SDS011;18496;52.042;6.812;2023-07-31T01:19:11;2.42;;;1.30;;
31966;SDS011;18496;52.042;6.812;2023-07-31T01:21:23;1.60;;;1.02;;
31966;SDS011;18496;52.042;6.812;2023-07-31T01:23:46;1.58;;;0.85;;
31966;SDS011;18496;52.042;6.812;2023-07-31T01:26:12;0.65;;;0.57;;
31966;SDS011;18496;52.042;6.812;2023-07-31T01:28:25;2.13;;;1.20;;
31966;SDS011;18496;52.042;6.812;2023-07-31T01:30:44;1.35;;;0.80;;
31966;SDS011;18496;52.042;6.812;2023-07-31T01:32:50;1.55;;;0.85;;
31966;SDS011;18496;52.042;6.812;2023-07-31T01:34:56;3.40;;;1.05;;
31966;SDS011;18496;52.042;6.812;2023-07-31T01:37:02;1.88;;;0.65;;
31966;SDS011;18496;52.042;6.812;2023-07-31T01:39:06;1.80;;;0.80;;
31966;SDS011;18496;52.042;6.812;2023-07-31T01:41:09;1.23;;;0.70;;
31966;SDS011;18496;52.042;6.812;2023-07-31T01:43:14;1.42;;;1.05;;
31966;SDS011;18496;52.042;6.812;2023-07-31T01:45:18;2.55;;;1.58;;
31966;SDS011;18496;52.042;6.812;2023-07-31T01:47:22;2.25;;;1.50;;
31966;SDS011;18496;52.042;6.812;2023-07-31T01:49:26;6.97;;;2.22;;
31966;SDS011;18496;52.042;6.812;2023-07-31T01:51:30;4.93;;;3.15;;
31966;SDS011;18496;52.042;6.812;2023-07-31T01:53:37;13.65;;;4.85;;
31966;SDS011;18496;52.042;6.812;2023-07-31T01:55:40;10.52;;;4.60;;
31966;SDS011;18496;52.042;6.812;2023-07-31T01:57:45;10.77;;;5.15;;
31966;SDS011;18496;52.042;6.812;2023-07-31T01:59:49;14.05;;;6.30;;
31966;SDS011;18496;52.042;6.812;2023-07-31T02:01:52;24.92;;;6.70;;
31966;SDS011;18496;52.042;6.812;2023-07-31T02:03:56;17.65;;;7.53;;
31966;SDS011;18496;52.042;6.812;2023-07-31T02:06:00;21.23;;;7.55;;
31966;SDS011;18496;52.042;6.812;2023-07-31T02:08:04;19.70;;;7.72;;
31966;SDS011;18496;52.042;6.812;2023-07-31T02:10:08;23.52;;;8.40;;
31966;SDS011;18496;52.042;6.812;2023-07-31T02:12:12;18.83;;;8.32;;
31966;SDS011;18496;52.042;6.812;2023-07-31T02:14:17;22.27;;;9.30;;
31966;SDS011;18496;52.042;6.812;2023-07-31T02:16:21;24.30;;;9.23;;
31966;SDS011;18496;52.042;6.812;2023-07-31T02:18:24;27.13;;;10.13;;
31966;SDS011;18496;52.042;6.812;2023-07-31T02:20:28;26.25;;;10.07;;
31966;SDS011;18496;52.042;6.812;2023-07-31T02:22:32;35.78;;;11.68;;
31966;SDS011;18496;52.042;6.812;2023-07-31T02:24:35;27.90;;;10.52;;
31966;SDS011;18496;52.042;6.812;2023-07-31T02:26:39;25.23;;;10.95;;
31966;SDS011;18496;52.042;6.812;2023-07-31T02:28:43;30.48;;;11.07;;
31966;SDS011;18496;52.042;6.812;2023-07-31T02:30:47;34.92;;;12.25;;
31966;SDS011;18496;52.042;6.812;2023-07-31T02:32:53;29.20;;;10.95;;
31966;SDS011;18496;52.042;6.812;2023-07-31T02:34:57;29.67;;;10.98;;
31966;SDS011;18496;52.042;6.812;2023-07-31T02:37:02;28.25;;;10.88;;
31966;SDS011;18496;52.042;6.812;2023-07-31T02:39:06;31.08;;;11.07;;
31966;SDS011;18496;52.042;6.812;2023-07-31T02:41:10;36.17;;;10.93;;
31966;SDS011;18496;52.042;6.812;2023-07-31T02:43:13;24.75;;;10.48;;
31966;SDS011;18496;52.042;6.812;2023-07-31T02:45:17;37.67;;;11.13;;
31966;SDS011;18496;52.042;6.812;2023-07-31T02:47:21;30.48;;;10.98;;
31966;SDS011;18496;52.042;6.812;2023-07-31T02:49:25;30.02;;;10.40;;
31966;SDS011;18496;52.042;6.812;2023-07-31T02:51:29;36.38;;;11.13;;
31966;SDS011;18496;52.042;6.812;2023-07-31T02:53:33;27.48;;;9.73;;
31966;SDS011;18496;52.042;6.812;2023-07-31T02:55:36;23.08;;;11.00;;
31966;SDS011;18496;52.042;6.812;2023-07-31T02:57:40;26.60;;;9.95;;
31966;SDS011;18496;52.042;6.812;2023-07-31T02:59:44;21.20;;;9.88;;
31966;SDS011;18496;52.042;6.812;2023-07-31T03:01:47;25.75;;;9.45;;
31966;SDS011;18496;52.042;6.812;2023-07-31T03:03:51;22.40;;;8.52;;
31966;SDS011;18496;52.042;6.812;2023-07-31T03:05:54;27.48;;;9.93;;
31966;SDS011;18496;52.042;6.812;2023-07-31T03:07:58;23.10;;;8.80;;
31966;SDS011;18496;52.042;6.812;2023-07-31T03:10:02;31.80;;;9.05;;
31966;SDS011;18496;52.042;6.812;2023-07-31T03:12:05;24.25;;;9.25;;
31966;SDS011;18496;52.042;6.812;2023-07-31T03:14:09;24.38;;;8.95;;
31966;SDS011;18496;52.042;6.812;2023-07-31T03:16:13;29.48;;;8.70;;
31966;SDS011;18496;52.042;6.812;2023-07-31T03:18:17;22.67;;;8.68;;
31966;SDS011;18496;52.042;6.812;2023-07-31T03:20:20;19.95;;;8.38;;
31966;SDS011;18496;52.042;6.812;2023-07-31T03:22:24;22.40;;;8.70;;
31966;SDS011;18496;52.042;6.812;2023-07-31T03:24:28;21.02;;;8.30;;
31966;SDS011;18496;52.042;6.812;2023-07-31T03:26:32;20.50;;;8.18;;
31966;SDS011;18496;52.042;6.812;2023-07-31T03:28:35;25.58;;;8.57;;
31966;SDS011;18496;52.042;6.812;2023-07-31T03:30:39;30.42;;;8.18;;
31966;SDS011;18496;52.042;6.812;2023-07-31T03:32:43;23.13;;;8.18;;
31966;SDS011;18496;52.042;6.812;2023-07-31T03:34:46;28.00;;;7.55;;
31966;SDS011;18496;52.042;6.812;2023-07-31T03:36:50;21.83;;;8.00;;
31966;SDS011;18496;52.042;6.812;2023-07-31T03:38:53;23.85;;;8.65;;
31966;SDS011;18496;52.042;6.812;2023-07-31T03:40:57;24.30;;;8.18;;
31966;SDS011;18496;52.042;6.812;2023-07-31T03:43:01;19.92;;;8.05;;
31966;SDS011;18496;52.042;6.812;2023-07-31T03:45:05;25.40;;;8.20;;
31966;SDS011;18496;52.042;6.812;2023-07-31T03:47:10;24.42;;;8.85;;
31966;SDS011;18496;52.042;6.812;2023-07-31T03:49:14;32.15;;;7.85;;
31966;SDS011;18496;52.042;6.812;2023-07-31T03:51:18;21.45;;;8.15;;
31966;SDS011;18496;52.042;6.812;2023-07-31T03:53:21;22.95;;;7.35;;
31966;SDS011;18496;52.042;6.812;2023-07-31T03:55:25;26.95;;;7.78;;
31966;SDS011;18496;52.042;6.812;2023-07-31T03:57:29;26.63;;;8.40;;
31966;SDS011;18496;52.042;6.812;2023-07-31T03:59:32;26.30;;;8.18;;
31966;SDS011;18496;52.042;6.812;2023-07-31T04:01:36;25.45;;;8.20;;
31966;SDS011;18496;52.042;6.812;2023-07-31T04:03:40;17.25;;;7.40;;
31966;SDS011;18496;52.042;6.812;2023-07-31T04:05:44;20.60;;;6.68;;
31966;SDS011;18496;52.042;6.812;2023-07-31T04:07:47;20.20;;;6.97;;
31966;SDS011;18496;52.042;6.812;2023-07-31T04:09:51;21.80;;;7.22;;
31966;SDS011;18496;52.042;6.812;2023-07-31T04:11:54;20.73;;;7.40;;
31966;SDS011;18496;52.042;6.812;2023-07-31T04:13:58;18.95;;;7.07;;
31966;SDS011;18496;52.042;6.812;2023-07-31T04:16:02;25.60;;;7.43;;
31966;SDS011;18496;52.042;6.812;2023-07-31T04:18:05;21.70;;;7.20;;
31966;SDS011;18496;52.042;6.812;2023-07-31T04:20:09;23.30;;;6.78;;
31966;SDS011;18496;52.042;6.812;2023-07-31T04:22:13;34.25;;;7.05;;
31966;SDS011;18496;52.042;6.812;2023-07-31T04:24:17;26.73;;;7.50;;
31966;SDS011;18496;52.042;6.812;2023-07-31T04:26:27;20.95;;;6.45;;
31966;SDS011;18496;52.042;6.812;2023-07-31T04:28:30;20.73;;;6.78;;
31966;SDS011;18496;52.042;6.812;2023-07-31T04:30:34;22.92;;;6.97;;
31966;SDS011;18496;52.042;6.812;2023-07-31T04:32:39;19.60;;;6.72;;
31966;SDS011;18496;52.042;6.812;2023-07-31T04:34:43;21.40;;;6.47;;
31966;SDS011;18496;52.042;6.812;2023-07-31T04:36:47;19.35;;;6.03;;
31966;SDS011;18496;52.042;6.812;2023-07-31T04:38:50;21.98;;;7.22;;
31966;SDS011;18496;52.042;6.812;2023-07-31T04:40:54;27.02;;;6.85;;
31966;SDS011;18496;52.042;6.812;2023-07-31T04:42:57;22.67;;;6.13;;
31966;SDS011;18496;52.042;6.812;2023-07-31T04:45:01;18.63;;;7.03;;
31966;SDS011;18496;52.042;6.812;2023-07-31T04:47:05;22.45;;;6.82;;
31966;SDS011;18496;52.042;6.812;2023-07-31T04:49:08;24.23;;;6.80;;
31966;SDS011;18496;52.042;6.812;2023-07-31T04:51:12;18.98;;;6.68;;
31966;SDS011;18496;52.042;6.812;2023-07-31T04:53:16;28.15;;;7.10;;
31966;SDS011;18496;52.042;6.812;2023-07-31T04:55:19;22.42;;;6.70;;
31966;SDS011;18496;52.042;6.812;2023-07-31T04:57:23;16.73;;;6.05;;
31966;SDS011;18496;52.042;6.812;2023-07-31T04:59:26;21.80;;;7.40;;
31966;SDS011;18496;52.042;6.812;2023-07-31T05:01:30;22.83;;;7.18;;
31966;SDS011;18496;52.042;6.812;2023-07-31T05:03:34;19.08;;;6.32;;
31966;SDS011;18496;52.042;6.812;2023-07-31T05:05:37;20.27;;;7.13;;
31966;SDS011;18496;52.042;6.812;2023-07-31T05:07:41;22.98;;;6.72;;
31966;SDS011;18496;52.042;6.812;2023-07-31T05:09:45;18.55;;;7.47;;
31966;SDS011;18496;52.042;6.812;2023-07-31T05:11:48;28.42;;;7.30;;
31966;SDS011;18496;52.042;6.812;2023-07-31T05:13:52;24.35;;;6.95;;
31966;SDS011;18496;52.042;6.812;2023-07-31T05:15:55;20.27;;;7.00;;
31966;SDS011;18496;52.042;6.812;2023-07-31T05:17:59;18.00;;;6.60;;
31966;SDS011;18496;52.042;6.812;2023-07-31T05:20:03;20.77;;;6.22;;
31966;SDS011;18496;52.042;6.812;2023-07-31T05:22:07;23.50;;;6.90;;
31966;SDS011;18496;52.042;6.812;2023-07-31T05:24:10;17.90;;;5.70;;
31966;SDS011;18496;52.042;6.812;2023-07-31T05:26:14;20.10;;;6.70;;
31966;SDS011;18496;52.042;6.812;2023-07-31T05:28:18;27.42;;;7.65;;
31966;SDS011;18496;52.042;6.812;2023-07-31T05:30:21;29.73;;;6.57;;
31966;SDS011;18496;52.042;6.812;2023-07-31T05:32:25;25.20;;;6.43;;
31966;SDS011;18496;52.042;6.812;2023-07-31T05:34:29;17.73;;;5.78;;
31966;SDS011;18496;52.042;6.812;2023-07-31T05:36:32;22.38;;;6.25;;
31966;SDS011;18496;52.042;6.812;2023-07-31T05:38:36;18.20;;;6.18;;
31966;SDS011;18496;52.042;6.812;2023-07-31T05:40:39;18.40;;;6.05;;
31966;SDS011;18496;52.042;6.812;2023-07-31T05:42:45;19.83;;;6.13;;
31966;SDS011;18496;52.042;6.812;2023-07-31T05:44:49;14.95;;;5.80;;
31966;SDS011;18496;52.042;6.812;2023-07-31T05:46:52;23.40;;;6.72;;
31966;SDS011;18496;52.042;6.812;2023-07-31T05:48:56;20.55;;;6.82;;
31966;SDS011;18496;52.042;6.812;2023-07-31T05:51:00;21.05;;;6.95;;
31966;SDS011;18496;52.042;6.812;2023-07-31T05:53:03;26.38;;;6.55;;
31966;SDS011;18496;52.042;6.812;2023-07-31T05:55:07;19.92;;;6.13;;
31966;SDS011;18496;52.042;6.812;2023-07-31T05:57:11;20.55;;;5.60;;
31966;SDS011;18496;52.042;6.812;2023-07-31T05:59:15;18.50;;;6.57;;
31966;SDS011;18496;52.042;6.812;2023-07-31T06:01:19;15.55;;;5.72;;
31966;SDS011;18496;52.042;6.812;2023-07-31T06:03:24;17.85;;;5.53;;
31966;SDS011;18496;52.042;6.812;2023-07-31T06:05:28;24.77;;;7.03;;
31966;SDS011;18496;52.042;6.812;2023-07-31T06:07:33;17.67;;;6.00;;
31966;SDS011;18496;52.042;6.812;2023-07-31T06:09:36;14.75;;;6.35;;
31966;SDS011;18496;52.042;6.812;2023-07-31T06:11:40;31.15;;;6.68;;
31966;SDS011;18496;52.042;6.812;2023-07-31T06:13:44;23.42;;;6.10;;
31966;SDS011;18496;52.042;6.812;2023-07-31T06:15:47;17.05;;;5.78;;
31966;SDS011;18496;52.042;6.812;2023-07-31T06:17:51;15.43;;;6.07;;
31966;SDS011;18496;52.042;6.812;2023-07-31T06:19:56;17.27;;;5.90;;
31966;SDS011;18496;52.042;6.812;2023-07-31T06:22:00;18.05;;;5.85;;
31966;SDS011;18496;52.042;6.812;2023-07-31T06:24:04;19.70;;;6.68;;
31966;SDS011;18496;52.042;6.812;2023-07-31T06:26:11;11.40;;;4.90;;
31966;SDS011;18496;52.042;6.812;2023-07-31T06:28:14;22.25;;;5.45;;
31966;SDS011;18496;52.042;6.812;2023-07-31T06:30:18;15.40;;;5.03;;
31966;SDS011;18496;52.042;6.812;2023-07-31T06:32:21;17.05;;;6.10;;
31966;SDS011;18496;52.042;6.812;2023-07-31T06:34:25;16.73;;;4.93;;
31966;SDS011;18496;52.042;6.812;2023-07-31T06:36:29;22.75;;;5.55;;
31966;SDS011;18496;52.042;6.812;2023-07-31T06:38:32;18.27;;;6.30;;
31966;SDS011;18496;52.042;6.812;2023-07-31T06:40:36;15.27;;;4.78;;
31966;SDS011;18496;52.042;6.812;2023-07-31T06:42:39;19.30;;;5.82;;
31966;SDS011;18496;52.042;6.812;2023-07-31T06:44:43;14.00;;;5.03;;
31966;SDS011;18496;52.042;6.812;2023-07-31T06:46:47;17.98;;;5.40;;
31966;SDS011;18496;52.042;6.812;2023-07-31T06:48:50;20.55;;;6.22;;
31966;SDS011;18496;52.042;6.812;2023-07-31T06:50:54;18.90;;;5.50;;
31966;SDS011;18496;52.042;6.812;2023-07-31T06:52:58;19.35;;;6.10;;
31966;SDS011;18496;52.042;6.812;2023-07-31T06:55:17;21.85;;;5.70;;
31966;SDS011;18496;52.042;6.812;2023-07-31T06:57:23;16.40;;;5.75;;
31966;SDS011;18496;52.042;6.812;2023-07-31T06:59:27;16.13;;;5.30;;
31966;SDS011;18496;52.042;6.812;2023-07-31T07:01:30;16.00;;;5.82;;
31966;SDS011;18496;52.042;6.812;2023-07-31T07:03:34;18.35;;;5.72;;
31966;SDS011;18496;52.042;6.812;2023-07-31T07:05:38;19.30;;;5.20;;
31966;SDS011;18496;52.042;6.812;2023-07-31T07:07:41;18.77;;;5.43;;
31966;SDS011;18496;52.042;6.812;2023-07-31T07:09:45;10.85;;;5.07;;
31966;SDS011;18496;52.042;6.812;2023-07-31T07:11:49;12.18;;;5.05;;
31966;SDS011;18496;52.042;6.812;2023-07-31T07:13:52;11.48;;;4.63;;
31966;SDS011;18496;52.042;6.812;2023-07-31T07:15:56;15.52;;;4.90;;
31966;SDS011;18496;52.042;6.812;2023-07-31T07:18:00;11.88;;;5.20;;
31966;SDS011;18496;52.042;6.812;2023-07-31T07:20:04;8.50;;;3.85;;
31966;SDS011;18496;52.042;6.812;2023-07-31T07:22:08;7.90;;;3.72;;
31966;SDS011;18496;52.042;6.812;2023-07-31T07:24:11;5.28;;;3.45;;
31966;SDS011;18496;52.042;6.812;2023-07-31T07:26:15;9.98;;;3.83;;
31966;SDS011;18496;52.042;6.812;2023-07-31T07:28:18;5.65;;;3.13;;
31966;SDS011;18496;52.042;6.812;2023-07-31T07:30:22;7.40;;;3.00;;
31966;SDS011;18496;52.042;6.812;2023-07-31T07:32:28;7.15;;;2.90;;
31966;SDS011;18496;52.042;6.812;2023-07-31T07:34:31;4.82;;;2.72;;
31966;SDS011;18496;52.042;6.812;2023-07-31T07:36:35;5.72;;;2.60;;
31966;SDS011;18496;52.042;6.812;2023-07-31T07:38:39;5.45;;;3.10;;
31966;SDS011;18496;52.042;6.812;2023-07-31T07:40:42;6.88;;;3.00;;
31966;SDS011;18496;52.042;6.812;2023-07-31T07:42:46;6.78;;;2.92;;
31966;SDS011;18496;52.042;6.812;2023-07-31T07:44:50;6.00;;;2.75;;
31966;SDS011;18496;52.042;6.812;2023-07-31T07:46:53;6.10;;;2.35;;
31966;SDS011;18496;52.042;6.812;2023-07-31T07:48:57;7.75;;;2.97;;
31966;SDS011;18496;52.042;6.812;2023-07-31T07:51:01;3.80;;;2.20;;
31966;SDS011;18496;52.042;6.812;2023-07-31T07:53:04;4.07;;;2.05;;
31966;SDS011;18496;52.042;6.812;2023-07-31T07:55:08;3.90;;;2.30;;
31966;SDS011;18496;52.042;6.812;2023-07-31T07:57:12;4.65;;;2.35;;
31966;SDS011;18496;52.042;6.812;2023-07-31T07:59:15;3.95;;;2.08;;
31966;SDS011;18496;52.042;6.812;2023-07-31T08:01:19;3.60;;;2.20;;
31966;SDS011;18496;52.042;6.812;2023-07-31T08:03:23;3.15;;;2.30;;
31966;SDS011;18496;52.042;6.812;2023-07-31T08:05:26;4.75;;;1.88;;
31966;SDS011;18496;52.042;6.812;2023-07-31T08:07:30;3.13;;;1.85;;
31966;SDS011;18496;52.042;6.812;2023-07-31T08:09:34;5.55;;;2.30;;
31966;SDS011;18496;52.042;6.812;2023-07-31T08:11:37;4.30;;;2.20;;
31966;SDS011;18496;52.042;6.812;2023-07-31T08:13:41;4.90;;;2.28;;
31966;SDS011;18496;52.042;6.812;2023-07-31T08:15:45;3.95;;;2.10;;
31966;SDS011;18496;52.042;6.812;2023-07-31T08:17:48;3.30;;;1.90;;
31966;SDS011;18496;52.042;6.812;2023-07-31T08:19:52;2.85;;;2.00;;
31966;SDS011;18496;52.042;6.812;2023-07-31T08:21:55;2.63;;;1.60;;
31966;SDS011;18496;52.042;6.812;2023-07-31T08:23:59;4.10;;;1.95;;
31966;SDS011;18496;52.042;6.812;2023-07-31T08:26:03;3.40;;;1.50;;
31966;SDS011;18496;52.042;6.812;2023-07-31T08:28:06;3.75;;;1.92;;
31966;SDS011;18496;52.042;6.812;2023-07-31T08:30:11;1.92;;;1.75;;
31966;SDS011;18496;52.042;6.812;2023-07-31T08:32:15;3.10;;;1.80;;
31966;SDS011;18496;52.042;6.812;2023-07-31T08:34:18;1.88;;;1.65;;
31966;SDS011;18496;52.042;6.812;2023-07-31T08:36:22;1.98;;;1.40;;
31966;SDS011;18496;52.042;6.812;2023-07-31T08:38:26;3.97;;;1.70;;
31966;SDS011;18496;52.042;6.812;2023-07-31T08:40:29;5.15;;;1.90;;
31966;SDS011;18496;52.042;6.812;2023-07-31T08:42:33;2.40;;;1.65;;
31966;SDS011;18496;52.042;6.812;2023-07-31T08:44:37;3.97;;;2.30;;
31966;SDS011;18496;52.042;6.812;2023-07-31T08:46:41;3.17;;;2.20;;
31966;SDS011;18496;52.042;6.812;2023-07-31T08:48:45;2.55;;;1.88;;
31966;SDS011;18496;52.042;6.812;2023-07-31T08:50:51;6.95;;;2.47;;
31966;SDS011;18496;52.042;6.812;2023-07-31T08:52:56;2.33;;;1.65;;
31966;SDS011;18496;52.042;6.812;2023-07-31T08:55:00;3.17;;;1.95;;
31966;SDS011;18496;52.042;6.812;2023-07-31T08:57:04;3.03;;;1.90;;
31966;SDS011;18496;52.042;6.812;2023-07-31T08:59:09;3.05;;;1.90;;
31966;SDS011;18496;52.042;6.812;2023-07-31T09:01:14;4.50;;;1.98;;
31966;SDS011;18496;52.042;6.812;2023-07-31T09:03:19;4.80;;;1.75;;
31966;SDS011;18496;52.042;6.812;2023-07-31T09:05:26;6.43;;;2.08;;
31966;SDS011;18496;52.042;6.812;2023-07-31T09:07:31;3.72;;;2.03;;
31966;SDS011;18496;52.042;6.812;2023-07-31T09:09:37;2.42;;;1.85;;
31966;SDS011;18496;52.042;6.812;2023-07-31T09:11:41;4.22;;;2.20;;
31966;SDS011;18496;52.042;6.812;2023-07-31T09:13:45;2.85;;;2.30;;
31966;SDS011;18496;52.042;6.812;2023-07-31T09:15:49;4.93;;;2.17;;
31966;SDS011;18496;52.042;6.812;2023-07-31T09:17:59;5.18;;;2.45;;
31966;SDS011;18496;52.042;6.812;2023-07-31T09:20:17;3.83;;;2.25;;
31966;SDS011;18496;52.042;6.812;2023-07-31T09:22:31;4.03;;;1.92;;
31966;SDS011;18496;52.042;6.812;2023-07-31T09:24:36;3.13;;;1.90;;
31966;SDS011;18496;52.042;6.812;2023-07-31T09:26:40;2.00;;;1.67;;
31966;SDS011;18496;52.042;6.812;2023-07-31T09:28:43;4.22;;;1.73;;
31966;SDS011;18496;52.042;6.812;2023-07-31T09:30:51;2.38;;;1.75;;
31966;SDS011;18496;52.042;6.812;2023-07-31T09:33:02;3.25;;;1.73;;
31966;SDS011;18496;52.042;6.812;2023-07-31T09:37:31;4.03;;;1.90;;
31966;SDS011;18496;52.042;6.812;2023-07-31T09:39:45;3.05;;;2.20;;
31966;SDS011;18496;52.042;6.812;2023-07-31T09:41:54;3.25;;;1.80;;
31966;SDS011;18496;52.042;6.812;2023-07-31T09:43:58;3.05;;;1.67;;
31966;SDS011;18496;52.042;6.812;2023-07-31T09:46:01;2.65;;;1.60;;
31966;SDS011;18496;52.042;6.812;2023-07-31T09:48:09;3.03;;;1.75;;
31966;SDS011;18496;52.042;6.812;2023-07-31T09:50:14;2.17;;;1.50;;
31966;SDS011;18496;52.042;6.812;2023-07-31T09:52:19;3.05;;;1.35;;
31966;SDS011;18496;52.042;6.812;2023-07-31T09:54:22;3.45;;;1.60;;
31966;SDS011;18496;52.042;6.812;2023-07-31T09:56:26;4.30;;;1.67;;
31966;SDS011;18496;52.042;6.812;2023-07-31T09:58:30;2.13;;;1.80;;
31966;SDS011;18496;52.042;6.812;2023-07-31T10:00:39;1.88;;;1.60;;
31966;SDS011;18496;52.042;6.812;2023-07-31T10:02:45;2.33;;;1.77;;
31966;SDS011;18496;52.042;6.812;2023-07-31T10:04:50;6.50;;;2.00;;
31966;SDS011;18496;52.042;6.812;2023-07-31T10:06:54;2.03;;;1.80;;
31966;SDS011;18496;52.042;6.812;2023-07-31T10:08:59;2.97;;;1.95;;
31966;SDS011;18496;52.042;6.812;2023-07-31T10:11:04;7.25;;;2.45;;
31966;SDS011;18496;52.042;6.812;2023-07-31T10:13:09;3.85;;;1.95;;
31966;SDS011;18496;52.042;6.812;2023-07-31T10:15:13;3.55;;;2.10;;
31966;SDS011;18496;52.042;6.812;2023-07-31T10:17:18;2.47;;;2.13;;
31966;SDS011;18496;52.042;6.812;2023-07-31T10:19:24;4.30;;;2.45;;
31966;SDS011;18496;52.042;6.812;2023-07-31T10:21:30;3.55;;;2.45;;
31966;SDS011;18496;52.042;6.812;2023-07-31T10:23:38;3.05;;;2.40;;
31966;SDS011;18496;52.042;6.812;2023-07-31T10:25:43;4.47;;;2.72;;
31966;SDS011;18496;52.042;6.812;2023-07-31T10:27:47;5.18;;;2.22;;
31966;SDS011;18496;52.042;6.812;2023-07-31T10:29:57;3.10;;;2.25;;
31966;SDS011;18496;52.042;6.812;2023-07-31T10:32:02;3.58;;;2.40;;
31966;SDS011;18496;52.042;6.812;2023-07-31T10:34:09;7.53;;;2.58;;
31966;SDS011;18496;52.042;6.812;2023-07-31T10:36:14;8.27;;;2.88;;
31966;SDS011;18496;52.042;6.812;2023-07-31T10:38:20;4.75;;;2.53;;
31966;SDS011;18496;52.042;6.812;2023-07-31T10:40:27;5.15;;;2.60;;
31966;SDS011;18496;52.042;6.812;2023-07-31T10:42:32;4.18;;;2.72;;
31966;SDS011;18496;52.042;6.812;2023-07-31T10:44:37;6.70;;;3.10;;
31966;SDS011;18496;52.042;6.812;2023-07-31T10:46:42;5.40;;;2.70;;
31966;SDS011;18496;52.042;6.812;2023-07-31T10:48:48;4.32;;;3.20;;
31966;SDS011;18496;52.042;6.812;2023-07-31T10:51:10;5.43;;;3.10;;
31966;SDS011;18496;52.042;6.812;2023-07-31T10:57:31;5.72;;;3.10;;
31966;SDS011;18496;52.042;6.812;2023-07-31T10:59:38;7.38;;;4.00;;
31966;SDS011;18496;52.042;6.812;2023-07-31T11:01:52;7.78;;;4.13;;
31966;SDS011;18496;52.042;6.812;2023-07-31T11:03:56;5.65;;;3.47;;
31966;SDS011;18496;52.042;6.812;2023-07-31T11:10:20;9.35;;;4.40;;
31966;SDS011;18496;52.042;6.812;2023-07-31T11:12:26;7.88;;;4.50;;
31966;SDS011;18496;52.042;6.812;2023-07-31T11:14:30;7.25;;;4.55;;
31966;SDS011;18496;52.042;6.812;2023-07-31T11:16:33;8.38;;;4.88;;
31966;SDS011;18496;52.042;6.812;2023-07-31T11:18:41;10.18;;;5.40;;
31966;SDS011;18496;52.042;6.812;2023-07-31T11:20:45;7.35;;;4.68;;
31966;SDS011;18496;52.042;6.812;2023-07-31T11:22:49;7.32;;;4.78;;
31966;SDS011;18496;52.042;6.812;2023-07-31T11:24:53;11.65;;;5.75;;
31966;SDS011;18496;52.042;6.812;2023-07-31T11:26:56;9.32;;;5.13;;
31966;SDS011;18496;52.042;6.812;2023-07-31T11:29:00;7.38;;;5.03;;
31966;SDS011;18496;52.042;6.812;2023-07-31T11:31:04;13.05;;;5.82;;
31966;SDS011;18496;52.042;6.812;2023-07-31T11:33:08;10.23;;;5.93;;
31966;SDS011;18496;52.042;6.812;2023-07-31T11:35:14;15.15;;;6.93;;
31966;SDS011;18496;52.042;6.812;2023-07-31T11:37:18;10.40;;;5.80;;
31966;SDS011;18496;52.042;6.812;2023-07-31T11:39:21;11.63;;;6.18;;
31966;SDS011;18496;52.042;6.812;2023-07-31T11:41:25;12.52;;;6.45;;
31966;SDS011;18496;52.042;6.812;2023-07-31T11:43:32;10.98;;;6.38;;
31966;SDS011;18496;52.042;6.812;2023-07-31T11:45:36;13.05;;;6.65;;
31966;SDS011;18496;52.042;6.812;2023-07-31T11:47:39;11.70;;;6.20;;
31966;SDS011;18496;52.042;6.812;2023-07-31T11:49:43;19.30;;;6.32;;
31966;SDS011;18496;52.042;6.812;2023-07-31T11:51:47;8.95;;;5.93;;
31966;SDS011;18496;52.042;6.812;2023-07-31T11:53:52;13.93;;;6.70;;
31966;SDS011;18496;52.042;6.812;2023-07-31T11:55:59;10.27;;;6.28;;
31966;SDS011;18496;52.042;6.812;2023-07-31T11:58:04;12.30;;;6.57;;
31966;SDS011;18496;52.042;6.812;2023-07-31T12:00:08;15.70;;;6.53;;
31966;SDS011;18496;52.042;6.812;2023-07-31T12:02:17;11.15;;;6.00;;
31966;SDS011;18496;52.042;6.812;2023-07-31T12:04:21;12.82;;;6.05;;
31966;SDS011;18496;52.042;6.812;2023-07-31T12:06:33;11.45;;;6.35;;
31966;SDS011;18496;52.042;6.812;2023-07-31T12:08:37;10.77;;;5.70;;
31966;SDS011;18496;52.042;6.812;2023-07-31T12:10:41;10.00;;;5.88;;
31966;SDS011;18496;52.042;6.812;2023-07-31T12:12:54;8.30;;;5.78;;
31966;SDS011;18496;52.042;6.812;2023-07-31T12:15:02;10.57;;;6.38;;
31966;SDS011;18496;52.042;6.812;2023-07-31T12:17:16;10.73;;;6.10;;
31966;SDS011;18496;52.042;6.812;2023-07-31T12:19:22;17.98;;;5.85;;
31966;SDS011;18496;52.042;6.812;2023-07-31T12:21:26;11.80;;;5.57;;
31966;SDS011;18496;52.042;6.812;2023-07-31T12:23:31;9.77;;;5.75;;
31966;SDS011;18496;52.042;6.812;2023-07-31T12:25:35;13.77;;;5.85;;
31966;SDS011;18496;52.042;6.812;2023-07-31T12:27:39;10.52;;;5.55;;
31966;SDS011;18496;52.042;6.812;2023-07-31T12:29:43;10.13;;;5.63;;
31966;SDS011;18496;52.042;6.812;2023-07-31T12:31:47;9.80;;;5.40;;
31966;SDS011;18496;52.042;6.812;2023-07-31T12:33:51;11.45;;;5.53;;
31966;SDS011;18496;52.042;6.812;2023-07-31T12:35:54;11.18;;;5.40;;
31966;SDS011;18496;52.042;6.812;2023-07-31T12:38:00;8.20;;;4.85;;
31966;SDS011;18496;52.042;6.812;2023-07-31T12:40:04;6.88;;;5.18;;